»·PEaware :: BURNY1 KSPS-KAMA

BURNY1 :: KSPS-KAMA

FLIGHT INFORMATION

Flight Status: Arrived
Operator: Unknown
More flights by this operator :: More flights under this callsign
Pilot: 80 FTW ENJJPT (22981)
Aircraft: NORTHROP T-38 AT-38 TALON
(T38)
More flights by this aircraft type
Origin: KSPS Sheppard AFB/Wichita Falls Mu
United States
Destination: KAMA Amarillo Intl
United States
More flights between these airports :: More routes between these airports
Route: +PNH
File this flight plan on PilotEdge
Remarks: TEST local STEREO to KAMA
Altitude:
(Current/Filed)
28,000ft
Speed:
(Current/Filed)
350kts
Departed: 12-Aug-20 08:02 AM
Arrived: 12-Aug-20 08:58 AM
Distance/Time
Traveled:
176nm/0:56
Distance/Time
To Go:
Arrived

Flight Plot

Page will automatically refresh every two minutes.

Flight plan parsing failed; only flown route is shown


Map Options




Map Legend


Flown Route
Filed Route
Departure Airport
Arrival Airport
Navaid (VOR, NDB)
Fix

Horizontal Profiles

Position Reports

Time Latitude Longitude Heading Altitude Ground
Speed
12-Aug-20 07:48 34.006022 -98.497739 70 1023ft 0kts
12-Aug-20 07:49 34.006022 -98.497739 70 1023ft 0kts
12-Aug-20 07:50 34.006022 -98.497739 70 1023ft 0kts
12-Aug-20 07:51 34.006022 -98.497739 70 1023ft 0kts
12-Aug-20 07:52 34.006022 -98.497739 70 1023ft 0kts
12-Aug-20 07:53 34.006022 -98.497739 70 1023ft 0kts
12-Aug-20 07:54 34.006022 -98.497739 70 1023ft 0kts
12-Aug-20 07:55 34.006022 -98.497738 70 1027ft 0kts
12-Aug-20 07:56 34.006022 -98.497738 70 1027ft 0kts
12-Aug-20 07:57 34.006022 -98.497738 70 1027ft 0kts
12-Aug-20 07:58 34.006023 -98.497738 70 1027ft 0kts
12-Aug-20 07:58 34.006023 -98.497737 70 1027ft 0kts
12-Aug-20 08:00 34.006023 -98.497736 70 1027ft 0kts
12-Aug-20 08:01 34.006139 -98.497327 79 1027ft 5kts
12-Aug-20 08:01 33.979399 -98.485585 162 2627ft 212kts
12-Aug-20 08:03 33.888988 -98.499813 236 7452ft 352kts
12-Aug-20 08:03 33.895089 -98.595636 302 10780ft 394kts
12-Aug-20 08:04 33.959339 -98.711528 300 13732ft 447kts
12-Aug-20 08:05 34.029425 -98.848567 300 17147ft 495kts
12-Aug-20 08:06 34.093347 -98.996704 295 21491ft 487kts
12-Aug-20 08:07 34.152637 -99.138402 296 25327ft 472kts
12-Aug-20 08:08 34.211124 -99.280907 297 27645ft 475kts
12-Aug-20 08:09 34.273456 -99.428281 298 28062ft 509kts
12-Aug-20 08:10 34.337760 -99.586018 294 28073ft 536kts
12-Aug-20 08:11 34.404018 -99.751953 299 27990ft 550kts
12-Aug-20 08:12 34.476415 -99.912466 297 27906ft 539kts
12-Aug-20 08:13 34.537395 -100.058728 296 25848ft 438kts
12-Aug-20 08:14 34.586889 -100.185152 296 24373ft 412kts
12-Aug-20 08:15 34.641979 -100.311486 296 24029ft 430kts
12-Aug-20 08:16 34.700583 -100.435582 296 24006ft 411kts
12-Aug-20 08:17 34.751819 -100.559535 296 21956ft 409kts
12-Aug-20 08:18 34.808686 -100.671656 319 20909ft 371kts
12-Aug-20 08:19 34.889553 -100.756361 319 19979ft 410kts
12-Aug-20 08:20 34.982005 -100.844800 321 19749ft 430kts
12-Aug-20 08:21 35.076412 -100.938614 319 17347ft 423kts
12-Aug-20 08:22 35.155170 -101.019558 321 17049ft 331kts
12-Aug-20 08:23 35.230177 -101.094408 320 16995ft 388kts
12-Aug-20 08:24 35.328548 -101.122618 359 15997ft 363kts
12-Aug-20 08:25 35.416460 -101.147185 330 15227ft 281kts
12-Aug-20 08:26 35.432180 -101.231059 246 12278ft 325kts
12-Aug-20 08:27 35.393784 -101.334124 243 10237ft 357kts
12-Aug-20 08:28 35.352922 -101.436824 242 8607ft 292kts
12-Aug-20 08:29 35.317222 -101.515322 238 6818ft 229kts
12-Aug-20 08:30 35.289620 -101.576116 240 5848ft 199kts
12-Aug-20 08:31 35.263257 -101.636102 240 4607ft 202kts
12-Aug-20 08:32 35.236745 -101.694541 235 4110ft 200kts
12-Aug-20 08:33 35.189896 -101.764938 227 6695ft 331kts
12-Aug-20 08:34 35.130093 -101.841382 226 7998ft 327kts
12-Aug-20 08:35 35.051464 -101.837652 116 8372ft 342kts
12-Aug-20 08:36 35.075736 -101.734574 56 7098ft 330kts
12-Aug-20 08:37 35.130107 -101.649447 46 6999ft 330kts
12-Aug-20 08:38 35.194011 -101.567389 47 6990ft 328kts
12-Aug-20 08:39 35.255587 -101.485713 46 7052ft 336kts
12-Aug-20 08:40 35.327362 -101.420520 358 6769ft 308kts
12-Aug-20 08:41 35.367643 -101.481581 249 5339ft 241kts
12-Aug-20 08:42 35.338712 -101.553254 238 4985ft 217kts
12-Aug-20 08:43 35.305792 -101.607632 229 5057ft 202kts
12-Aug-20 08:44 35.266313 -101.655926 226 4175ft 200kts
12-Aug-20 08:45 35.228398 -101.702342 228 3993ft 195kts
12-Aug-20 08:46 35.181987 -101.764013 210 5582ft 257kts
12-Aug-20 08:47 35.134466 -101.721562 96 6124ft 275kts
12-Aug-20 08:48 35.142466 -101.631825 45 5811ft 261kts
12-Aug-20 08:49 35.191435 -101.565860 47 6086ft 273kts
12-Aug-20 08:50 35.243176 -101.495939 47 5942ft 273kts
12-Aug-20 08:51 35.302810 -101.457743 328 5500ft 262kts
12-Aug-20 08:52 35.348828 -101.526010 267 5209ft 271kts
12-Aug-20 08:53 35.318553 -101.599913 226 4995ft 201kts
12-Aug-20 08:54 35.280590 -101.645533 221 4968ft 188kts
12-Aug-20 08:55 35.241555 -101.687770 222 3949ft 184kts
12-Aug-20 08:56 35.214518 -101.720933 209 3610ft 47kts
12-Aug-20 08:57 35.212094 -101.723727 174 3610ft 0kts
12-Aug-20 08:58 35.211231 -101.723310 136 3610ft 0kts

Navigation Log

Ident Type
Flight plan parsing failed, navigation log unavailable